createdAt,value
2023-06-19T00:02:20.088Z,98257.06
2023-06-19T00:04:49.058Z,98260.19
2023-06-19T00:07:16.805Z,98265.50
2023-06-19T00:09:44.366Z,98265.50
2023-06-19T00:12:12.542Z,98262.81
2023-06-19T00:14:40.422Z,98264.06
2023-06-19T00:17:08.163Z,98260.47
2023-06-19T00:19:37.211Z,98263.56
2023-06-19T00:22:06.708Z,98256.06
2023-06-19T00:24:34.426Z,98263.88
2023-06-19T00:27:03.951Z,98261.75
2023-06-19T00:29:31.642Z,98267.59
2023-06-19T00:31:59.323Z,98259.59
2023-06-19T00:34:26.928Z,98266.19
2023-06-19T00:36:57.350Z,98265.97
2023-06-19T00:39:26.454Z,98266.28
2023-06-19T00:41:54.661Z,98268.53
2023-06-19T00:44:22.373Z,98274.47
2023-06-19T00:46:52.966Z,98274.06
2023-06-19T00:49:20.632Z,98282.13
2023-06-19T00:51:48.226Z,98284.00
2023-06-19T00:54:16.441Z,98280.66
2023-06-19T00:56:46.237Z,98294.13
2023-06-19T00:59:17.546Z,98327.91
2023-06-19T01:01:45.358Z,98344.91
2023-06-19T01:04:13.144Z,98359.84
2023-06-19T01:06:46.041Z,98358.97
2023-06-19T01:09:15.205Z,98354.31
2023-06-19T01:11:46.659Z,98355.72
2023-06-19T01:14:16.370Z,98355.28
2023-06-19T01:16:44.043Z,98358.38
2023-06-19T01:19:12.364Z,98356.13
2023-06-19T01:21:41.637Z,98343.25
2023-06-19T01:24:10.631Z,98348.41
2023-06-19T01:26:40.094Z,98351.56
2023-06-19T01:29:07.900Z,98351.88
2023-06-19T01:31:36.145Z,98345.72
2023-06-19T01:34:03.877Z,98347.09
2023-06-19T01:36:32.357Z,98357.66
2023-06-19T01:39:01.721Z,98360.41
2023-06-19T01:41:32.498Z,98348.09
2023-06-19T01:44:00.271Z,98355.47
2023-06-19T01:46:28.225Z,98363.53
2023-06-19T01:48:56.968Z,98365.56
2023-06-19T01:51:24.666Z,98385.81
2023-06-19T01:53:52.424Z,98373.06
2023-06-19T01:56:20.102Z,98371.03
2023-06-19T01:58:49.032Z,98376.09
2023-06-19T02:01:16.659Z,98367.59
2023-06-19T02:03:44.337Z,98369.63
2023-06-19T02:06:13.039Z,98371.56
2023-06-19T02:08:40.634Z,98379.59
2023-06-19T02:11:12.577Z,98378.13
2023-06-19T02:13:41.871Z,98366.06
2023-06-19T02:16:10.900Z,98357.25
2023-06-19T02:18:38.518Z,98353.00
2023-06-19T02:21:06.257Z,98350.97
2023-06-19T02:23:33.862Z,98355.66
2023-06-19T02:26:01.607Z,98348.22
2023-06-19T02:28:29.269Z,98351.81
2023-06-19T02:30:56.947Z,98351.66
2023-06-19T02:33:25.833Z,98345.28
2023-06-19T02:36:00.416Z,98336.34
2023-06-19T02:38:29.489Z,98344.81
2023-06-19T02:41:34.568Z,98349.41
2023-06-19T02:44:04.927Z,98345.97
2023-06-19T02:46:32.875Z,98349.75
2023-06-19T02:52:42.546Z,98369.28
2023-06-19T02:55:10.531Z,98367.44
2023-06-19T02:57:38.155Z,98371.88
2023-06-19T03:00:08.015Z,98377.75
2023-06-19T03:02:35.712Z,98380.47
2023-06-19T03:05:03.690Z,98385.84
2023-06-19T03:07:31.316Z,98395.41
2023-06-19T03:10:00.399Z,98395.97
2023-06-19T03:12:28.119Z,98391.59
2023-06-19T03:14:56.005Z,98393.91
2023-06-19T03:17:25.496Z,98391.88
2023-06-19T03:19:53.247Z,98400.50
2023-06-19T03:22:21.725Z,98411.31
2023-06-19T03:24:50.036Z,98411.69
2023-06-19T03:27:23.931Z,98417.66
2023-06-19T03:29:51.649Z,98415.09
2023-06-19T03:32:25.842Z,98418.75
2023-06-19T03:34:53.481Z,98416.94
2023-06-19T03:37:21.188Z,98424.81
2023-06-19T03:39:49.957Z,98424.72
2023-06-19T03:42:17.606Z,98436.44
2023-06-19T03:44:46.645Z,98429.66
2023-06-19T03:47:14.257Z,98437.34
2023-06-19T03:49:42.628Z,98432.78
2023-06-19T03:52:10.314Z,98435.13
2023-06-19T03:54:37.932Z,98434.72
2023-06-19T03:57:05.853Z,98426.69
2023-06-19T03:59:33.465Z,98434.47
2023-06-19T04:02:02.463Z,98428.91
2023-06-19T04:04:30.121Z,98429.56
2023-06-19T04:06:58.444Z,98428.38
2023-06-19T04:09:26.092Z,98435.31
2023-06-19T04:11:55.312Z,98428.91
2023-06-19T04:14:25.027Z,98432.59
2023-06-19T04:16:52.766Z,98438.66
2023-06-19T04:19:21.730Z,98434.09
2023-06-19T04:21:49.467Z,98444.72
2023-06-19T04:24:17.182Z,98439.72
2023-06-19T04:26:44.802Z,98447.78
2023-06-19T04:29:18.132Z,98458.31
2023-06-19T04:31:48.049Z,98454.16
2023-06-19T04:34:17.388Z,98458.66
2023-06-19T04:36:46.807Z,98454.41
2023-06-19T04:39:14.482Z,98448.97
2023-06-19T04:41:42.193Z,98448.44
2023-06-19T04:44:10.071Z,98455.31
2023-06-19T04:46:38.850Z,98454.59
2023-06-19T04:49:06.802Z,98454.78
2023-06-19T04:51:34.725Z,98459.72
2023-06-19T04:54:03.795Z,98458.13
2023-06-19T04:56:31.414Z,98466.66
2023-06-19T04:59:00.686Z,98467.00
2023-06-19T05:01:29.998Z,98469.88
2023-06-19T05:03:58.312Z,98471.84
2023-06-19T05:06:26.076Z,98468.28
2023-06-19T05:08:53.863Z,98467.56
2023-06-19T05:11:22.897Z,98470.00
2023-06-19T05:13:50.596Z,98478.06
2023-06-19T05:16:20.884Z,98467.97
2023-06-19T05:18:48.556Z,98466.34
2023-06-19T05:21:16.600Z,98477.44
2023-06-19T05:23:44.649Z,98479.06
2023-06-19T05:26:12.305Z,98477.53
2023-06-19T05:28:41.433Z,98486.53
2023-06-19T05:31:09.040Z,98490.38
2023-06-19T05:33:36.691Z,98491.94
2023-06-19T05:36:04.361Z,98486.09
2023-06-19T05:38:32.416Z,98485.44
2023-06-19T05:41:00.145Z,98489.88
2023-06-19T05:43:27.934Z,98491.41
2023-06-19T05:45:57.270Z,98501.63
2023-06-19T05:48:26.233Z,98499.19
2023-06-19T05:50:53.976Z,98494.84
2023-06-19T05:53:21.744Z,98499.66
2023-06-19T05:55:49.422Z,98494.56
2023-06-19T05:58:20.922Z,98495.75
2023-06-19T06:00:48.740Z,98496.19
2023-06-19T06:03:17.705Z,98499.78
2023-06-19T06:05:49.910Z,98501.50
2023-06-19T06:08:17.630Z,98497.06
2023-06-19T06:10:45.347Z,98509.16
2023-06-19T06:13:13.080Z,98503.91
2023-06-19T06:15:40.773Z,98507.03
2023-06-19T06:18:08.497Z,98507.34
2023-06-19T06:20:37.557Z,98506.69
2023-06-19T06:23:05.549Z,98502.47
2023-06-19T06:25:33.260Z,98505.44
2023-06-19T06:28:01.034Z,98504.94
2023-06-19T06:30:29.788Z,98517.34
2023-06-19T06:32:57.555Z,98510.88
2023-06-19T06:35:25.192Z,98516.28
2023-06-19T06:37:54.322Z,98524.28
2023-06-19T06:40:22.206Z,98534.94
2023-06-19T06:42:50.403Z,98537.50
2023-06-19T06:45:18.020Z,98544.34
2023-06-19T06:47:45.681Z,98540.47
2023-06-19T06:50:13.354Z,98550.09
2023-06-19T06:52:41.124Z,98552.19
2023-06-19T06:55:10.997Z,98557.63
2023-06-19T06:57:38.688Z,98561.50
2023-06-19T07:00:08.190Z,98558.84
2023-06-19T07:02:35.982Z,98560.25
2023-06-19T07:05:03.608Z,98554.06
2023-06-19T07:07:31.278Z,98558.75
2023-06-19T07:09:58.963Z,98560.03
2023-06-19T07:12:28.210Z,98573.41
2023-06-19T07:14:56.329Z,98565.50
2023-06-19T07:17:24.070Z,98567.09
2023-06-19T07:19:52.776Z,98569.59
2023-06-19T07:22:20.397Z,98568.66
2023-06-19T07:24:48.092Z,98577.38
2023-06-19T07:27:15.683Z,98578.84
2023-06-19T07:29:45.969Z,98582.69
2023-06-19T07:32:13.666Z,98580.97
2023-06-19T07:34:41.279Z,98574.09
2023-06-19T07:37:09.383Z,98572.00
2023-06-19T07:39:37.064Z,98576.25
2023-06-19T07:42:05.018Z,98574.44
2023-06-19T07:44:32.667Z,98579.78
2023-06-19T07:47:01.635Z,98585.41
2023-06-19T07:49:29.335Z,98582.56
2023-06-19T07:51:56.974Z,98580.59
2023-06-19T07:54:24.649Z,98579.53
2023-06-19T07:56:52.411Z,98589.19
2023-06-19T07:59:20.364Z,98579.75
2023-06-19T08:01:48.102Z,98586.97
2023-06-19T08:04:17.106Z,98597.31
2023-06-19T08:06:44.844Z,98580.69
2023-06-19T08:09:12.514Z,98573.50
2023-06-19T08:11:40.217Z,98586.06
2023-06-19T08:14:07.928Z,98588.53
2023-06-19T08:16:35.743Z,98587.94
2023-06-19T08:19:03.401Z,98581.25
2023-06-19T08:21:32.762Z,98583.84
2023-06-19T08:24:00.539Z,98587.94
2023-06-19T08:26:30.817Z,98591.53
2023-06-19T08:28:58.464Z,98583.22
2023-06-19T08:31:28.513Z,98587.94
2023-06-19T08:33:56.311Z,98584.75
2023-06-19T08:36:25.049Z,98577.53
2023-06-19T08:38:54.009Z,98587.56
2023-06-19T08:41:21.661Z,98587.22
2023-06-19T08:43:49.584Z,98583.25
2023-06-19T08:46:18.852Z,98581.50
2023-06-19T08:48:48.247Z,98584.31
2023-06-19T08:51:15.958Z,98583.84
2023-06-19T08:53:46.816Z,98583.09
2023-06-19T08:56:15.782Z,98574.47
2023-06-19T08:58:43.394Z,98579.22
2023-06-19T09:01:11.043Z,98577.00
2023-06-19T09:03:38.668Z,98576.50
2023-06-19T09:06:08.449Z,98584.03
2023-06-19T09:08:36.621Z,98573.50
2023-06-19T09:11:04.951Z,98578.53
2023-06-19T09:13:34.730Z,98589.72
2023-06-19T09:16:04.848Z,98582.00
2023-06-19T09:18:33.090Z,98575.69
2023-06-19T09:21:00.983Z,98577.22
2023-06-19T09:23:28.624Z,98571.31
2023-06-19T09:25:59.961Z,98579.03
2023-06-19T09:28:32.858Z,98576.13
2023-06-19T09:31:02.799Z,98575.19
2023-06-19T09:33:31.849Z,98574.44
2023-06-19T09:36:00.544Z,98576.63
2023-06-19T09:38:28.810Z,98564.88
2023-06-19T09:40:57.489Z,98566.59
2023-06-19T09:43:26.384Z,98576.50
2023-06-19T09:45:56.935Z,98575.38
2023-06-19T09:48:29.461Z,98576.75
2023-06-19T09:51:01.805Z,98569.88
2023-06-19T09:53:29.727Z,98565.31
2023-06-19T09:55:57.352Z,98573.38
2023-06-19T09:58:25.690Z,98567.31
2023-06-19T10:00:54.127Z,98563.50
2023-06-19T10:03:21.917Z,98572.31
2023-06-19T10:05:59.168Z,98564.69
2023-06-19T10:08:31.510Z,98579.16
2023-06-19T10:10:59.351Z,98565.22
2023-06-19T10:13:33.513Z,98560.38
2023-06-19T10:16:01.526Z,98568.50
2023-06-19T10:18:29.251Z,98569.38
2023-06-19T10:20:59.253Z,98567.81
2023-06-19T10:23:29.695Z,98569.28
2023-06-19T10:25:58.402Z,98561.56
2023-06-19T10:28:26.976Z,98566.03
2023-06-19T10:30:55.837Z,98569.69
2023-06-19T10:33:24.190Z,98570.41
2023-06-19T10:35:51.920Z,98574.06
2023-06-19T10:38:20.959Z,98571.88
2023-06-19T10:40:49.042Z,98562.31
2023-06-19T10:43:21.828Z,98542.53
2023-06-19T10:45:49.542Z,98539.53
2023-06-19T10:48:21.027Z,98534.16
2023-06-19T10:50:49.245Z,98536.00
2023-06-19T10:53:26.889Z,98526.28
2023-06-19T10:55:56.893Z,98531.47
2023-06-19T10:58:24.770Z,98533.63
2023-06-19T11:00:52.375Z,98531.50
2023-06-19T11:03:20.739Z,98524.81
2023-06-19T11:05:48.943Z,98524.25
2023-06-19T11:08:19.323Z,98526.00
2023-06-19T11:10:48.423Z,98526.78
2023-06-19T11:13:17.531Z,98528.34
2023-06-19T11:15:45.700Z,98522.25
2023-06-19T11:18:13.779Z,98522.69
2023-06-19T11:20:47.467Z,98521.00
2023-06-19T11:23:15.210Z,98514.50
2023-06-19T11:25:43.382Z,98505.56
2023-06-19T11:28:15.692Z,98504.84
2023-06-19T11:30:44.942Z,98513.41
2023-06-19T11:33:23.203Z,98503.81
2023-06-19T11:35:51.445Z,98524.78
2023-06-19T11:38:21.116Z,98514.72
2023-06-19T11:40:49.196Z,98508.31
2023-06-19T11:43:27.487Z,98506.84
2023-06-19T11:45:55.962Z,98515.75
2023-06-19T11:48:24.332Z,98507.78
2023-06-19T11:50:52.896Z,98514.19
2023-06-19T11:53:20.593Z,98511.81
2023-06-19T11:55:48.246Z,98509.31
2023-06-19T11:58:16.545Z,98508.13
2023-06-19T12:00:45.601Z,98509.78
2023-06-19T12:03:13.503Z,98506.00
2023-06-19T12:05:41.395Z,98497.53
2023-06-19T12:08:09.068Z,98495.75
2023-06-19T12:10:37.377Z,98494.47
2023-06-19T12:13:04.985Z,98499.63
2023-06-19T12:15:33.124Z,98492.53
2023-06-19T12:18:04.363Z,98495.06
2023-06-19T12:20:32.068Z,98488.78
2023-06-19T12:22:59.676Z,98483.75
2023-06-19T12:25:27.407Z,98485.25
2023-06-19T12:27:55.879Z,98482.78
2023-06-19T12:30:24.807Z,98482.34
2023-06-19T12:32:52.735Z,98480.09
2023-06-19T12:35:23.228Z,98479.28
2023-06-19T12:37:50.858Z,98474.47
2023-06-19T12:40:18.509Z,98468.50
2023-06-19T12:42:46.148Z,98475.59
2023-06-19T12:45:13.827Z,98481.97
2023-06-19T12:47:41.654Z,98471.03
2023-06-19T12:50:10.008Z,98477.16
2023-06-19T12:52:38.990Z,98477.31
2023-06-19T12:55:06.943Z,98464.19
2023-06-19T12:57:34.538Z,98470.34
2023-06-19T13:00:02.142Z,98462.91
2023-06-19T13:02:29.827Z,98472.28
2023-06-19T13:04:58.481Z,98458.38
2023-06-19T13:07:26.086Z,98454.88
2023-06-19T13:09:55.053Z,98453.53
2023-06-19T13:12:23.890Z,98450.84
2023-06-19T13:14:51.558Z,98447.94
2023-06-19T13:17:19.322Z,98447.31
2023-06-19T13:19:47.074Z,98442.56
2023-06-19T13:22:14.704Z,98439.94
2023-06-19T13:24:42.413Z,98429.09
2023-06-19T13:27:11.547Z,98432.88
2023-06-19T13:29:40.794Z,98439.13
2023-06-19T13:32:08.737Z,98432.94
2023-06-19T13:34:36.321Z,98434.81
2023-06-19T13:37:04.993Z,98433.97
2023-06-19T13:39:32.720Z,98437.56
2023-06-19T13:42:01.667Z,98432.09
2023-06-19T13:44:30.725Z,98426.47
2023-06-19T13:46:58.611Z,98423.06
2023-06-19T13:49:26.507Z,98420.59
2023-06-19T13:51:54.410Z,98418.50
2023-06-19T13:54:22.113Z,98407.66
2023-06-19T13:56:50.095Z,98403.63
2023-06-19T13:59:18.053Z,98409.03
2023-06-19T14:01:46.962Z,98411.16
2023-06-19T14:04:14.626Z,98401.66
2023-06-19T14:06:43.613Z,98401.88
2023-06-19T14:09:11.344Z,98402.94
2023-06-19T14:11:38.980Z,98398.31
2023-06-19T14:14:06.711Z,98390.38
2023-06-19T14:16:34.483Z,98399.94
2023-06-19T14:19:03.593Z,98394.13
2023-06-19T14:21:31.201Z,98388.72
2023-06-19T14:23:58.888Z,98382.81
2023-06-19T14:26:26.818Z,98380.03
2023-06-19T14:28:58.330Z,98381.25
2023-06-19T14:31:26.132Z,98377.44
2023-06-19T14:33:53.706Z,98371.31
2023-06-19T14:36:22.686Z,98374.75
2023-06-19T14:38:50.345Z,98375.91
2023-06-19T14:41:18.062Z,98378.81
2023-06-19T14:43:45.792Z,98378.97
2023-06-19T14:46:20.338Z,98375.56
2023-06-19T14:48:53.897Z,98376.44
2023-06-19T14:51:22.875Z,98367.25
2023-06-19T14:53:50.449Z,98369.00
2023-06-19T14:56:18.083Z,98376.13
2023-06-19T14:58:45.821Z,98356.72
2023-06-19T15:01:13.673Z,98354.91
2023-06-19T15:03:41.380Z,98352.88
2023-06-19T15:06:09.023Z,98345.84
2023-06-19T15:08:39.748Z,98342.09
2023-06-19T15:11:07.624Z,98345.84
2023-06-19T15:13:36.158Z,98344.91
2023-06-19T15:16:06.119Z,98343.19
2023-06-19T15:18:33.841Z,98342.44
2023-06-19T15:21:01.577Z,98344.91
2023-06-19T15:23:29.251Z,98344.84
2023-06-19T15:25:58.438Z,98358.66
2023-06-19T15:28:26.096Z,98363.53
2023-06-19T15:30:53.772Z,98351.22
2023-06-19T15:33:22.149Z,98342.81
2023-06-19T15:35:50.749Z,98348.25
2023-06-19T15:38:18.480Z,98349.34
2023-06-19T15:40:46.151Z,98343.56
2023-06-19T15:43:15.436Z,98357.63
2023-06-19T15:45:43.156Z,98352.06
2023-06-19T15:48:10.841Z,98346.47
2023-06-19T15:50:38.448Z,98354.09
2023-06-19T15:53:06.155Z,98362.31
2023-06-19T15:55:34.054Z,98369.16
2023-06-19T15:58:03.565Z,98362.72
2023-06-19T16:00:32.578Z,98362.72
2023-06-19T16:03:00.320Z,98370.78
2023-06-19T16:05:28.028Z,98377.31
2023-06-19T16:07:55.811Z,98382.03
2023-06-19T16:10:23.781Z,98393.94
2023-06-19T16:12:51.720Z,98529.94
2023-06-19T16:15:25.053Z,98568.13
2023-06-19T16:17:55.047Z,98623.28
2023-06-19T16:20:23.279Z,98623.47
2023-06-19T16:22:52.133Z,98615.09
2023-06-19T16:25:19.892Z,98621.66
2023-06-19T16:27:47.475Z,98514.53
2023-06-19T16:30:15.178Z,98443.88
2023-06-19T16:32:42.816Z,98420.13
2023-06-19T16:35:12.021Z,98412.00
2023-06-19T16:37:39.699Z,98394.47
2023-06-19T16:40:08.193Z,98384.19
2023-06-19T16:42:35.752Z,98392.47
2023-06-19T16:45:03.425Z,98393.75
2023-06-19T16:47:31.136Z,98375.81
2023-06-19T16:49:58.837Z,98377.84
2023-06-19T16:52:28.417Z,98371.06
2023-06-19T16:54:56.315Z,98368.53
2023-06-19T16:57:24.248Z,98359.34
2023-06-19T16:59:51.934Z,98368.22
2023-06-19T17:02:19.684Z,98359.69
2023-06-19T17:04:48.649Z,98351.91
2023-06-19T17:07:16.228Z,98351.41
2023-06-19T17:09:47.200Z,98348.94
2023-06-19T17:12:15.067Z,98349.44
2023-06-19T17:14:43.345Z,98348.50
2023-06-19T17:17:11.060Z,98354.47
2023-06-19T17:19:39.274Z,98350.22
2023-06-19T17:22:06.990Z,98346.69
2023-06-19T17:24:34.641Z,98345.78
2023-06-19T17:27:03.645Z,98349.44
2023-06-19T17:29:31.435Z,98351.69
2023-06-19T17:31:59.073Z,98351.28
2023-06-19T17:34:26.734Z,98357.88
2023-06-19T17:36:55.013Z,98353.41
2023-06-19T17:39:22.673Z,98347.50
2023-06-19T17:41:52.926Z,98348.41
2023-06-19T17:44:26.339Z,98349.50
2023-06-19T17:46:54.163Z,98343.72
2023-06-19T17:49:23.536Z,98351.78
2023-06-19T17:51:51.286Z,98354.44
2023-06-19T17:54:18.946Z,98348.03
2023-06-19T17:56:46.668Z,98356.25
2023-06-19T17:59:14.997Z,98363.81
2023-06-19T18:01:44.009Z,98360.59
2023-06-19T18:04:11.699Z,98365.13
2023-06-19T18:06:39.343Z,98367.50
2023-06-19T18:09:08.870Z,98369.81
2023-06-19T18:11:36.547Z,98379.69
2023-06-19T18:14:04.385Z,98370.47
2023-06-19T18:16:32.082Z,98376.31
2023-06-19T18:19:01.107Z,98375.25
2023-06-19T18:21:28.833Z,98378.38
2023-06-19T18:23:59.682Z,98382.16
2023-06-19T18:26:28.503Z,98388.19
2023-06-19T18:28:56.201Z,98383.22
2023-06-19T18:31:23.925Z,98376.94
2023-06-19T18:33:51.629Z,98373.81
2023-06-19T18:36:20.717Z,98371.38
2023-06-19T18:38:48.774Z,98367.66
2023-06-19T18:41:16.366Z,98359.31
2023-06-19T18:43:44.018Z,98353.91
2023-06-19T18:46:12.409Z,98359.72
2023-06-19T18:48:41.922Z,98357.72
2023-06-19T18:51:09.507Z,98360.84
2023-06-19T18:53:38.506Z,98346.09
2023-06-19T18:56:06.361Z,98349.44
2023-06-19T18:58:34.014Z,98352.13
2023-06-19T19:01:03.146Z,98356.09
2023-06-19T19:03:33.749Z,98356.09
2023-06-19T19:06:01.625Z,98356.88
2023-06-19T19:08:29.235Z,98365.53
2023-06-19T19:10:58.531Z,98365.53
2023-06-19T19:13:26.204Z,98360.00
2023-06-19T19:15:53.856Z,98368.22
2023-06-19T19:18:21.494Z,98361.97
2023-06-19T19:20:49.048Z,98362.56
2023-06-19T19:23:16.718Z,98371.47
2023-06-19T19:25:44.484Z,98362.75
2023-06-19T19:28:15.150Z,98369.63
2023-06-19T19:30:44.823Z,98358.28
2023-06-19T19:33:17.363Z,98362.31
2023-06-19T19:35:45.207Z,98364.34
2023-06-19T19:38:12.811Z,98367.19
2023-06-19T19:40:40.402Z,98368.94
2023-06-19T19:43:08.041Z,98379.28
2023-06-19T19:45:37.113Z,98382.22
2023-06-19T19:48:04.955Z,98391.63
2023-06-19T19:50:33.026Z,98382.41
2023-06-19T19:53:00.965Z,98383.25
2023-06-19T19:55:28.544Z,98387.19
2023-06-19T19:57:56.222Z,98384.28
2023-06-19T20:00:23.934Z,98385.69
2023-06-19T20:02:53.171Z,98395.38
2023-06-19T20:05:20.972Z,98398.91
2023-06-19T20:07:48.652Z,98396.84
2023-06-19T20:10:16.248Z,98402.19
2023-06-19T20:12:43.832Z,98404.84
2023-06-19T20:15:11.877Z,98396.88
2023-06-19T20:17:39.485Z,98396.00
2023-06-19T20:20:09.024Z,98404.06
2023-06-19T20:22:36.573Z,98400.22
2023-06-19T20:25:04.299Z,98404.16
2023-06-19T20:27:31.924Z,98410.00
2023-06-19T20:29:59.586Z,98411.09
2023-06-19T20:32:27.225Z,98413.53
2023-06-19T20:34:54.870Z,98417.34
2023-06-19T20:37:23.894Z,98411.84
2023-06-19T20:39:51.503Z,98414.22
2023-06-19T20:42:19.813Z,98412.66
2023-06-19T20:44:48.745Z,98415.88
2023-06-19T20:47:16.323Z,98408.28
2023-06-19T20:49:43.954Z,98402.19
2023-06-19T20:52:11.570Z,98403.97
2023-06-19T20:54:40.536Z,98406.47
2023-06-19T20:57:08.368Z,98403.06
2023-06-19T20:59:36.528Z,98406.44
2023-06-19T21:02:04.573Z,98410.00
2023-06-19T21:04:32.833Z,98401.41
2023-06-19T21:07:00.534Z,98403.38
2023-06-19T21:09:28.108Z,98401.25
2023-06-19T21:11:57.055Z,98397.94
2023-06-19T21:14:24.674Z,98395.91
2023-06-19T21:16:52.343Z,98398.81
2023-06-19T21:19:22.907Z,98399.66
2023-06-19T21:21:50.500Z,98408.38
2023-06-19T21:24:18.171Z,98406.25
2023-06-19T21:26:45.845Z,98403.44
2023-06-19T21:29:15.020Z,98395.38
2023-06-19T21:31:43.626Z,98394.72
2023-06-19T21:34:11.294Z,98388.22
2023-06-19T21:36:38.874Z,98387.38
2023-06-19T21:39:06.491Z,98398.09
2023-06-19T21:41:34.056Z,98388.19
2023-06-19T21:44:01.602Z,98390.97
2023-06-19T21:46:30.659Z,98382.78
2023-06-19T21:48:59.665Z,98377.41
2023-06-19T21:51:27.214Z,98375.28
2023-06-19T21:53:54.842Z,98372.63
2023-06-19T21:56:22.500Z,98364.91
2023-06-19T21:58:50.151Z,98364.03
2023-06-19T22:01:17.747Z,98363.19
2023-06-19T22:03:46.683Z,98353.59
2023-06-19T22:06:15.252Z,98346.31
2023-06-19T22:08:43.425Z,98349.78
2023-06-19T22:11:11.219Z,98354.19
2023-06-19T22:13:40.313Z,98346.91
2023-06-19T22:16:09.181Z,98345.75
2023-06-19T22:18:37.013Z,98345.72
2023-06-19T22:21:06.241Z,98343.84
2023-06-19T22:23:33.934Z,98343.75
2023-06-19T22:26:01.543Z,98328.72
2023-06-19T22:28:29.183Z,98328.72
2023-06-19T22:30:56.818Z,98335.13
2023-06-19T22:33:24.452Z,98325.28
2023-06-19T22:35:52.083Z,98325.91
2023-06-19T22:38:21.326Z,98323.72
2023-06-19T22:41:16.795Z,98324.97
2023-06-19T22:44:09.916Z,98315.88
2023-06-19T22:46:37.542Z,98319.63
2023-06-19T22:49:05.491Z,98321.38
2023-06-19T22:51:33.780Z,98317.91
2023-06-19T22:54:02.919Z,98313.84
2023-06-19T22:56:30.492Z,98311.94
2023-06-19T22:59:00.574Z,98321.81
2023-06-19T23:01:31.413Z,98316.81
2023-06-19T23:03:59.225Z,98318.41
2023-06-19T23:06:27.642Z,98316.50
2023-06-19T23:08:55.260Z,98308.38
2023-06-19T23:11:24.180Z,98301.63
2023-06-19T23:13:51.778Z,98298.50
2023-06-19T23:16:19.379Z,98302.56
2023-06-19T23:18:47.004Z,98301.63
2023-06-19T23:21:14.622Z,98300.25
2023-06-19T23:23:48.075Z,98297.88
2023-06-19T23:26:16.127Z,98297.88
2023-06-19T23:28:45.115Z,98298.34
2023-06-19T23:31:12.794Z,98297.72
2023-06-19T23:33:40.389Z,98299.28
2023-06-19T23:36:08.118Z,98286.59
2023-06-19T23:38:36.048Z,98286.72
2023-06-19T23:41:04.076Z,98272.94
2023-06-19T23:43:31.662Z,98283.25
2023-06-19T23:46:00.645Z,98275.19
2023-06-19T23:48:28.300Z,98280.28
2023-06-19T23:50:55.865Z,98282.78
2023-06-19T23:53:23.451Z,98291.09
2023-06-19T23:55:51.126Z,98296.75
2023-06-19T23:58:19.147Z,98297.94
